sensor_id;sensor_type;location;lat;lon;timestamp;pressure;altitude;pressure_sealevel;temperature;humidity
7376;BME280;3728;42.266;24.944;2022-08-19T00:02:13;99023.50;;;26.19;54.00
7376;BME280;3728;42.266;24.944;2022-08-19T00:04:40;99024.75;;;26.15;54.21
7376;BME280;3728;42.266;24.944;2022-08-19T00:07:08;99020.91;;;25.96;54.96
7376;BME280;3728;42.266;24.944;2022-08-19T00:09:35;99013.03;;;26.05;55.02
7376;BME280;3728;42.266;24.944;2022-08-19T00:12:03;99013.63;;;26.16;54.50
7376;BME280;3728;42.266;24.944;2022-08-19T00:14:30;99011.53;;;26.04;55.65
7376;BME280;3728;42.266;24.944;2022-08-19T00:16:59;99008.19;;;25.80;57.00
7376;BME280;3728;42.266;24.944;2022-08-19T00:19:27;99002.41;;;25.82;57.08
7376;BME280;3728;42.266;24.944;2022-08-19T00:21:55;99008.72;;;25.92;57.29
7376;BME280;3728;42.266;24.944;2022-08-19T00:24:23;99017.53;;;25.72;56.03
7376;BME280;3728;42.266;24.944;2022-08-19T00:26:51;99020.91;;;25.57;57.00
7376;BME280;3728;42.266;24.944;2022-08-19T00:29:20;99022.66;;;25.44;58.44
7376;BME280;3728;42.266;24.944;2022-08-19T00:31:48;99025.41;;;25.40;58.72
7376;BME280;3728;42.266;24.944;2022-08-19T00:34:16;99018.66;;;25.09;60.51
7376;BME280;3728;42.266;24.944;2022-08-19T00:36:44;99015.75;;;24.73;64.36
7376;BME280;3728;42.266;24.944;2022-08-19T00:39:12;99010.38;;;24.50;66.85
7376;BME280;3728;42.266;24.944;2022-08-19T00:41:40;99005.13;;;24.43;68.49
7376;BME280;3728;42.266;24.944;2022-08-19T00:44:12;99010.88;;;24.41;66.67
7376;BME280;3728;42.266;24.944;2022-08-19T00:46:43;99006.66;;;24.44;66.95
7376;BME280;3728;42.266;24.944;2022-08-19T00:52:03;99012.19;;;24.57;66.24
7376;BME280;3728;42.266;24.944;2022-08-19T00:54:31;99006.06;;;24.33;66.32
7376;BME280;3728;42.266;24.944;2022-08-19T00:57:00;99013.50;;;24.45;64.71
7376;BME280;3728;42.266;24.944;2022-08-19T00:59:29;99015.53;;;24.37;63.23
7376;BME280;3728;42.266;24.944;2022-08-19T01:02:19;99019.97;;;24.47;62.33
7376;BME280;3728;42.266;24.944;2022-08-19T01:04:47;99016.56;;;24.47;63.13
7376;BME280;3728;42.266;24.944;2022-08-19T01:07:14;99017.63;;;24.49;62.59
7376;BME280;3728;42.266;24.944;2022-08-19T01:09:45;99019.75;;;24.62;62.69
7376;BME280;3728;42.266;24.944;2022-08-19T01:12:13;99022.75;;;24.67;63.06
7376;BME280;3728;42.266;24.944;2022-08-19T01:14:40;99008.25;;;24.65;63.45
7376;BME280;3728;42.266;24.944;2022-08-19T01:17:10;99010.00;;;24.52;63.28
7376;BME280;3728;42.266;24.944;2022-08-19T01:19:40;99011.31;;;24.40;64.73
7376;BME280;3728;42.266;24.944;2022-08-19T01:24:57;99022.03;;;24.36;64.77
7376;BME280;3728;42.266;24.944;2022-08-19T01:27:25;99016.03;;;24.29;64.89
7376;BME280;3728;42.266;24.944;2022-08-19T01:30:12;99031.69;;;24.30;64.60
7376;BME280;3728;42.266;24.944;2022-08-19T01:32:40;99022.94;;;24.26;63.85
7376;BME280;3728;42.266;24.944;2022-08-19T01:35:08;99028.72;;;24.21;65.54
7376;BME280;3728;42.266;24.944;2022-08-19T01:37:46;99030.25;;;24.22;64.07
7376;BME280;3728;42.266;24.944;2022-08-19T01:40:15;99037.06;;;24.30;62.83
7376;BME280;3728;42.266;24.944;2022-08-19T01:42:47;99040.84;;;24.33;63.18
7376;BME280;3728;42.266;24.944;2022-08-19T01:45:16;99041.66;;;24.26;63.18
7376;BME280;3728;42.266;24.944;2022-08-19T01:47:44;99042.09;;;24.25;63.26
7376;BME280;3728;42.266;24.944;2022-08-19T01:50:27;99047.00;;;24.30;63.45
7376;BME280;3728;42.266;24.944;2022-08-19T01:52:58;99044.69;;;24.28;64.71
7376;BME280;3728;42.266;24.944;2022-08-19T01:55:34;99053.69;;;24.15;65.23
7376;BME280;3728;42.266;24.944;2022-08-19T01:58:12;99052.13;;;24.17;64.88
7376;BME280;3728;42.266;24.944;2022-08-19T02:00:42;99047.19;;;24.16;66.90
7376;BME280;3728;42.266;24.944;2022-08-19T02:03:13;99044.00;;;24.24;66.32
7376;BME280;3728;42.266;24.944;2022-08-19T02:05:41;99050.72;;;24.36;65.48
7376;BME280;3728;42.266;24.944;2022-08-19T02:08:09;99043.09;;;24.34;65.09
7376;BME280;3728;42.266;24.944;2022-08-19T02:10:40;99048.09;;;24.32;66.61
7376;BME280;3728;42.266;24.944;2022-08-19T02:13:09;99045.66;;;24.15;67.03
7376;BME280;3728;42.266;24.944;2022-08-19T02:15:37;99046.31;;;24.22;66.39
7376;BME280;3728;42.266;24.944;2022-08-19T02:18:05;99046.75;;;24.21;67.70
7376;BME280;3728;42.266;24.944;2022-08-19T02:20:35;99054.31;;;24.26;67.44
7376;BME280;3728;42.266;24.944;2022-08-19T02:23:03;99056.75;;;24.43;67.73
7376;BME280;3728;42.266;24.944;2022-08-19T02:25:39;99058.56;;;24.50;66.17
7376;BME280;3728;42.266;24.944;2022-08-19T02:28:06;99057.16;;;24.42;66.32
7376;BME280;3728;42.266;24.944;2022-08-19T02:30:34;99059.88;;;24.38;67.70
7376;BME280;3728;42.266;24.944;2022-08-19T02:33:01;99053.38;;;24.39;67.73
7376;BME280;3728;42.266;24.944;2022-08-19T02:35:29;99058.72;;;24.39;68.17
7376;BME280;3728;42.266;24.944;2022-08-19T02:37:56;99054.47;;;24.42;67.88
7376;BME280;3728;42.266;24.944;2022-08-19T02:40:49;99059.22;;;24.58;67.85
7376;BME280;3728;42.266;24.944;2022-08-19T02:43:18;99060.31;;;24.33;69.33
7376;BME280;3728;42.266;24.944;2022-08-19T02:45:47;99070.63;;;24.35;68.41
7376;BME280;3728;42.266;24.944;2022-08-19T02:48:17;99065.31;;;23.98;69.11
7376;BME280;3728;42.266;24.944;2022-08-19T02:50:49;99070.00;;;24.24;67.91
7376;BME280;3728;42.266;24.944;2022-08-19T02:53:24;99065.22;;;24.08;68.84
7376;BME280;3728;42.266;24.944;2022-08-19T02:55:53;99073.34;;;23.98;69.63
7376;BME280;3728;42.266;24.944;2022-08-19T02:58:21;99082.47;;;24.04;70.70
7376;BME280;3728;42.266;24.944;2022-08-19T03:00:55;99080.50;;;24.08;70.60
7376;BME280;3728;42.266;24.944;2022-08-19T03:03:26;99088.22;;;24.02;70.29
7376;BME280;3728;42.266;24.944;2022-08-19T03:06:10;99095.91;;;23.97;70.27
7376;BME280;3728;42.266;24.944;2022-08-19T03:08:41;99091.97;;;24.05;69.37
7376;BME280;3728;42.266;24.944;2022-08-19T03:11:27;99097.34;;;24.05;70.77
7376;BME280;3728;42.266;24.944;2022-08-19T03:13:58;99101.66;;;23.95;70.91
7376;BME280;3728;42.266;24.944;2022-08-19T03:16:28;99094.50;;;23.85;71.66
7376;BME280;3728;42.266;24.944;2022-08-19T03:19:00;99105.81;;;24.00;71.57
7376;BME280;3728;42.266;24.944;2022-08-19T03:21:30;99111.06;;;23.73;72.05
7376;BME280;3728;42.266;24.944;2022-08-19T03:24:07;99116.13;;;23.64;72.32
7376;BME280;3728;42.266;24.944;2022-08-19T03:26:39;99119.06;;;23.73;72.14
7376;BME280;3728;42.266;24.944;2022-08-19T03:29:07;99116.25;;;23.50;73.46
7376;BME280;3728;42.266;24.944;2022-08-19T03:31:40;99121.53;;;23.57;72.22
7376;BME280;3728;42.266;24.944;2022-08-19T03:34:25;99132.28;;;23.46;73.02
7376;BME280;3728;42.266;24.944;2022-08-19T03:36:57;99131.63;;;23.39;73.99
7376;BME280;3728;42.266;24.944;2022-08-19T03:39:26;99133.56;;;23.31;74.50
7376;BME280;3728;42.266;24.944;2022-08-19T03:41:54;99133.31;;;23.11;75.34
7376;BME280;3728;42.266;24.944;2022-08-19T03:44:48;99128.72;;;23.08;75.38
7376;BME280;3728;42.266;24.944;2022-08-19T03:47:16;99132.63;;;22.97;76.26
7376;BME280;3728;42.266;24.944;2022-08-19T03:49:44;99123.44;;;23.05;76.72
7376;BME280;3728;42.266;24.944;2022-08-19T03:52:11;99124.09;;;23.16;76.23
7376;BME280;3728;42.266;24.944;2022-08-19T03:54:39;99127.94;;;23.15;76.77
7376;BME280;3728;42.266;24.944;2022-08-19T03:57:06;99131.00;;;23.13;76.89
7376;BME280;3728;42.266;24.944;2022-08-19T03:59:36;99124.88;;;23.13;76.65
7376;BME280;3728;42.266;24.944;2022-08-19T04:02:09;99125.53;;;23.35;77.33
7376;BME280;3728;42.266;24.944;2022-08-19T04:04:39;99130.53;;;23.26;78.18
7376;BME280;3728;42.266;24.944;2022-08-19T04:07:07;99136.97;;;23.35;77.76
7376;BME280;3728;42.266;24.944;2022-08-19T04:09:36;99134.06;;;23.63;77.22
7376;BME280;3728;42.266;24.944;2022-08-19T04:12:05;99135.94;;;23.66;76.98
7376;BME280;3728;42.266;24.944;2022-08-19T04:14:33;99135.47;;;23.75;76.42
7376;BME280;3728;42.266;24.944;2022-08-19T04:17:02;99130.53;;;23.73;77.08
7376;BME280;3728;42.266;24.944;2022-08-19T04:19:33;99139.50;;;23.94;76.71
7376;BME280;3728;42.266;24.944;2022-08-19T04:22:02;99135.16;;;24.10;76.06
7376;BME280;3728;42.266;24.944;2022-08-19T04:24:30;99133.28;;;24.04;77.80
7376;BME280;3728;42.266;24.944;2022-08-19T04:27:00;99125.16;;;24.14;76.90
7376;BME280;3728;42.266;24.944;2022-08-19T04:29:29;99132.66;;;24.26;77.02
7376;BME280;3728;42.266;24.944;2022-08-19T04:31:58;99133.41;;;24.30;76.16
7376;BME280;3728;42.266;24.944;2022-08-19T04:34:35;99140.97;;;24.35;75.43
7376;BME280;3728;42.266;24.944;2022-08-19T04:37:23;99137.06;;;24.43;74.91
7376;BME280;3728;42.266;24.944;2022-08-19T04:39:59;99143.22;;;24.40;74.35
7376;BME280;3728;42.266;24.944;2022-08-19T04:42:45;99143.44;;;24.53;73.99
7376;BME280;3728;42.266;24.944;2022-08-19T04:45:16;99142.66;;;24.56;74.51
7376;BME280;3728;42.266;24.944;2022-08-19T04:47:44;99139.38;;;24.72;73.64
7376;BME280;3728;42.266;24.944;2022-08-19T04:50:25;99143.47;;;24.83;73.17
7376;BME280;3728;42.266;24.944;2022-08-19T04:52:52;99149.41;;;24.94;72.58
7376;BME280;3728;42.266;24.944;2022-08-19T04:55:22;99151.91;;;25.08;71.00
7376;BME280;3728;42.266;24.944;2022-08-19T04:57:53;99145.13;;;25.27;70.22
7376;BME280;3728;42.266;24.944;2022-08-19T05:00:20;99143.38;;;25.40;68.89
7376;BME280;3728;42.266;24.944;2022-08-19T05:02:47;99148.53;;;25.54;68.38
7376;BME280;3728;42.266;24.944;2022-08-19T05:05:16;99144.47;;;25.69;68.00
7376;BME280;3728;42.266;24.944;2022-08-19T05:07:43;99144.56;;;25.86;67.02
7376;BME280;3728;42.266;24.944;2022-08-19T05:10:11;99140.91;;;25.96;66.67
7376;BME280;3728;42.266;24.944;2022-08-19T05:12:39;99143.31;;;26.10;65.35
7376;BME280;3728;42.266;24.944;2022-08-19T05:15:26;99148.81;;;26.81;59.05
7376;BME280;3728;42.266;24.944;2022-08-19T05:17:53;99151.38;;;26.69;58.42
7376;BME280;3728;42.266;24.944;2022-08-19T05:20:39;99153.56;;;26.74;58.41
7376;BME280;3728;42.266;24.944;2022-08-19T05:23:25;99153.72;;;26.67;57.79
7376;BME280;3728;42.266;24.944;2022-08-19T05:25:52;99148.41;;;26.83;56.26
7376;BME280;3728;42.266;24.944;2022-08-19T05:28:20;99160.13;;;26.73;56.50
7376;BME280;3728;42.266;24.944;2022-08-19T05:30:48;99157.94;;;27.03;55.86
7376;BME280;3728;42.266;24.944;2022-08-19T05:33:18;99159.69;;;26.94;56.72
7376;BME280;3728;42.266;24.944;2022-08-19T05:35:45;99157.06;;;26.90;57.21
7376;BME280;3728;42.266;24.944;2022-08-19T05:38:16;99162.22;;;27.01;56.24
7376;BME280;3728;42.266;24.944;2022-08-19T05:40:44;99162.41;;;27.26;55.47
7376;BME280;3728;42.266;24.944;2022-08-19T05:43:13;99171.72;;;27.70;55.15
7376;BME280;3728;42.266;24.944;2022-08-19T05:45:42;99174.75;;;27.88;55.41
7376;BME280;3728;42.266;24.944;2022-08-19T05:48:11;99170.06;;;27.60;54.91
7376;BME280;3728;42.266;24.944;2022-08-19T05:50:40;99172.91;;;27.69;54.76
7376;BME280;3728;42.266;24.944;2022-08-19T05:53:08;99176.94;;;27.61;54.09
7376;BME280;3728;42.266;24.944;2022-08-19T05:55:35;99178.31;;;27.37;56.12
7376;BME280;3728;42.266;24.944;2022-08-19T05:58:05;99172.53;;;27.38;56.75
7376;BME280;3728;42.266;24.944;2022-08-19T06:00:35;99184.47;;;27.53;57.22
7376;BME280;3728;42.266;24.944;2022-08-19T06:03:03;99188.19;;;27.88;55.15
7376;BME280;3728;42.266;24.944;2022-08-19T06:05:41;99190.28;;;27.97;55.12
7376;BME280;3728;42.266;24.944;2022-08-19T06:08:18;99187.91;;;28.15;54.48
7376;BME280;3728;42.266;24.944;2022-08-19T06:10:45;99182.03;;;28.61;53.01
7376;BME280;3728;42.266;24.944;2022-08-19T06:13:13;99187.44;;;28.86;51.18
7376;BME280;3728;42.266;24.944;2022-08-19T06:15:43;99189.28;;;28.48;53.00
7376;BME280;3728;42.266;24.944;2022-08-19T06:18:10;99185.72;;;28.38;53.93
7376;BME280;3728;42.266;24.944;2022-08-19T06:20:38;99182.41;;;28.47;53.58
7376;BME280;3728;42.266;24.944;2022-08-19T06:23:21;99184.56;;;28.52;53.62
7376;BME280;3728;42.266;24.944;2022-08-19T06:25:50;99185.09;;;29.01;51.45
7376;BME280;3728;42.266;24.944;2022-08-19T06:28:17;99189.16;;;28.93;52.17
7376;BME280;3728;42.266;24.944;2022-08-19T06:30:45;99189.91;;;28.81;52.07
7376;BME280;3728;42.266;24.944;2022-08-19T06:33:12;99192.84;;;28.86;50.93
7376;BME280;3728;42.266;24.944;2022-08-19T06:35:40;99189.91;;;28.81;51.32
7376;BME280;3728;42.266;24.944;2022-08-19T06:38:08;99194.97;;;29.54;48.72
7376;BME280;3728;42.266;24.944;2022-08-19T06:40:36;99193.28;;;29.35;49.06
7376;BME280;3728;42.266;24.944;2022-08-19T06:43:04;99191.97;;;29.40;47.91
7376;BME280;3728;42.266;24.944;2022-08-19T06:45:37;99193.72;;;29.46;48.48
7376;BME280;3728;42.266;24.944;2022-08-19T06:48:05;99182.94;;;29.46;45.97
7376;BME280;3728;42.266;24.944;2022-08-19T06:50:33;99190.44;;;29.64;46.80
7376;BME280;3728;42.266;24.944;2022-08-19T06:53:07;99186.56;;;29.65;44.80
7376;BME280;3728;42.266;24.944;2022-08-19T06:55:36;99190.44;;;29.76;45.85
7376;BME280;3728;42.266;24.944;2022-08-19T06:58:04;99185.16;;;30.29;42.89
7376;BME280;3728;42.266;24.944;2022-08-19T07:00:32;99182.38;;;29.98;43.31
7376;BME280;3728;42.266;24.944;2022-08-19T07:03:00;99190.16;;;30.61;42.04
7376;BME280;3728;42.266;24.944;2022-08-19T07:05:39;99191.38;;;30.17;44.22
7376;BME280;3728;42.266;24.944;2022-08-19T07:08:11;99185.19;;;30.16;42.82
7376;BME280;3728;42.266;24.944;2022-08-19T07:10:43;99192.44;;;30.41;43.75
7376;BME280;3728;42.266;24.944;2022-08-19T07:13:11;99186.09;;;30.35;43.17
7376;BME280;3728;42.266;24.944;2022-08-19T07:15:40;99187.63;;;30.36;44.07
7376;BME280;3728;42.266;24.944;2022-08-19T07:18:08;99186.97;;;30.54;42.53
7376;BME280;3728;42.266;24.944;2022-08-19T07:20:39;99189.63;;;30.44;42.79
7376;BME280;3728;42.266;24.944;2022-08-19T07:23:09;99177.59;;;30.45;42.49
7376;BME280;3728;42.266;24.944;2022-08-19T07:25:42;99178.94;;;30.72;43.65
7376;BME280;3728;42.266;24.944;2022-08-19T07:28:10;99171.59;;;31.03;41.84
7376;BME280;3728;42.266;24.944;2022-08-19T07:30:49;99180.56;;;30.91;41.13
7376;BME280;3728;42.266;24.944;2022-08-19T07:33:18;99182.13;;;31.50;40.56
7376;BME280;3728;42.266;24.944;2022-08-19T07:35:47;99178.53;;;31.62;40.69
7376;BME280;3728;42.266;24.944;2022-08-19T07:38:16;99178.81;;;31.46;41.34
7376;BME280;3728;42.266;24.944;2022-08-19T07:40:44;99172.81;;;31.51;41.76
7376;BME280;3728;42.266;24.944;2022-08-19T07:43:12;99180.78;;;31.63;41.35
7376;BME280;3728;42.266;24.944;2022-08-19T07:45:43;99181.41;;;31.58;41.44
7376;BME280;3728;42.266;24.944;2022-08-19T07:48:10;99171.63;;;32.24;38.53
7376;BME280;3728;42.266;24.944;2022-08-19T07:50:39;99177.81;;;31.80;40.86
7376;BME280;3728;42.266;24.944;2022-08-19T07:53:06;99166.97;;;31.89;40.64
7376;BME280;3728;42.266;24.944;2022-08-19T07:55:33;99168.63;;;31.95;39.54
7376;BME280;3728;42.266;24.944;2022-08-19T07:58:10;99172.69;;;32.00;40.05
7376;BME280;3728;42.266;24.944;2022-08-19T08:00:38;99167.84;;;31.95;40.44
7376;BME280;3728;42.266;24.944;2022-08-19T08:03:05;99173.53;;;32.51;38.67
7376;BME280;3728;42.266;24.944;2022-08-19T08:05:35;99155.78;;;32.32;39.45
7376;BME280;3728;42.266;24.944;2022-08-19T08:08:21;99159.78;;;32.73;39.57
7376;BME280;3728;42.266;24.944;2022-08-19T08:11:13;99167.25;;;33.20;38.85
7376;BME280;3728;42.266;24.944;2022-08-19T08:13:43;99164.34;;;33.56;36.77
7376;BME280;3728;42.266;24.944;2022-08-19T08:16:10;99163.84;;;33.34;38.81
7376;BME280;3728;42.266;24.944;2022-08-19T08:18:40;99168.09;;;33.35;37.21
7376;BME280;3728;42.266;24.944;2022-08-19T08:21:18;99164.97;;;33.51;38.00
7376;BME280;3728;42.266;24.944;2022-08-19T08:23:46;99161.50;;;33.50;38.90
7376;BME280;3728;42.266;24.944;2022-08-19T08:26:14;99165.03;;;33.65;37.90
7376;BME280;3728;42.266;24.944;2022-08-19T08:28:44;99155.66;;;33.66;37.73
7376;BME280;3728;42.266;24.944;2022-08-19T08:31:15;99156.22;;;34.09;36.48
7376;BME280;3728;42.266;24.944;2022-08-19T08:33:43;99158.78;;;34.12;36.88
7376;BME280;3728;42.266;24.944;2022-08-19T08:36:11;99152.66;;;34.03;37.97
7376;BME280;3728;42.266;24.944;2022-08-19T08:38:42;99162.81;;;34.17;37.62
7376;BME280;3728;42.266;24.944;2022-08-19T08:41:49;99155.22;;;34.21;36.51
7376;BME280;3728;42.266;24.944;2022-08-19T08:44:41;99160.44;;;34.39;35.79
7376;BME280;3728;42.266;24.944;2022-08-19T08:47:16;99149.41;;;34.42;35.47
7376;BME280;3728;42.266;24.944;2022-08-19T08:49:50;99157.28;;;34.40;35.22
7376;BME280;3728;42.266;24.944;2022-08-19T08:52:26;99145.56;;;34.64;35.33
7376;BME280;3728;42.266;24.944;2022-08-19T08:55:00;99146.84;;;34.83;36.32
7376;BME280;3728;42.266;24.944;2022-08-19T09:00:36;99145.72;;;34.75;35.49
7376;BME280;3728;42.266;24.944;2022-08-19T09:03:17;99143.84;;;35.16;35.22
7376;BME280;3728;42.266;24.944;2022-08-19T09:08:42;99138.91;;;34.99;35.59
7376;BME280;3728;42.266;24.944;2022-08-19T09:17:08;99127.44;;;35.50;33.75
7376;BME280;3728;42.266;24.944;2022-08-19T09:19:54;99131.13;;;35.67;33.39
7376;BME280;3728;42.266;24.944;2022-08-19T09:22:22;99123.00;;;35.73;34.33
7376;BME280;3728;42.266;24.944;2022-08-19T09:24:51;99127.16;;;35.68;34.23
7376;BME280;3728;42.266;24.944;2022-08-19T09:27:20;99122.88;;;35.62;33.96
7376;BME280;3728;42.266;24.944;2022-08-19T09:30:20;99119.81;;;35.75;34.73
7376;BME280;3728;42.266;24.944;2022-08-19T09:32:51;99113.44;;;36.09;34.62
7376;BME280;3728;42.266;24.944;2022-08-19T09:35:25;99112.31;;;35.95;35.28
7376;BME280;3728;42.266;24.944;2022-08-19T09:37:56;99108.38;;;35.96;34.14
7376;BME280;3728;42.266;24.944;2022-08-19T09:40:28;99102.38;;;35.92;33.62
7376;BME280;3728;42.266;24.944;2022-08-19T09:42:59;99105.19;;;35.98;34.54
7376;BME280;3728;42.266;24.944;2022-08-19T09:45:39;99109.13;;;36.22;34.13
7376;BME280;3728;42.266;24.944;2022-08-19T09:48:08;99102.94;;;36.53;32.82
7376;BME280;3728;42.266;24.944;2022-08-19T09:50:37;99104.22;;;36.63;31.27
7376;BME280;3728;42.266;24.944;2022-08-19T09:53:18;99096.00;;;36.94;31.55
7376;BME280;3728;42.266;24.944;2022-08-19T09:55:51;99099.31;;;37.15;30.50
7376;BME280;3728;42.266;24.944;2022-08-19T09:58:18;99088.44;;;36.78;32.98
7376;BME280;3728;42.266;24.944;2022-08-19T10:00:52;99102.22;;;37.00;31.94
7376;BME280;3728;42.266;24.944;2022-08-19T10:03:20;99093.16;;;36.78;31.79
7376;BME280;3728;42.266;24.944;2022-08-19T10:05:57;99086.72;;;36.86;31.31
7376;BME280;3728;42.266;24.944;2022-08-19T10:08:29;99091.66;;;37.25;31.60
7376;BME280;3728;42.266;24.944;2022-08-19T10:10:57;99095.16;;;37.31;29.63
7376;BME280;3728;42.266;24.944;2022-08-19T10:13:29;99075.72;;;37.12;29.65
7376;BME280;3728;42.266;24.944;2022-08-19T10:16:04;99084.97;;;37.26;29.44
7376;BME280;3728;42.266;24.944;2022-08-19T10:18:36;99079.25;;;37.24;29.47
7376;BME280;3728;42.266;24.944;2022-08-19T10:21:15;99068.50;;;37.09;30.10
7376;BME280;3728;42.266;24.944;2022-08-19T10:23:45;99063.25;;;37.06;30.40
7376;BME280;3728;42.266;24.944;2022-08-19T10:26:16;99063.91;;;37.43;31.98
7376;BME280;3728;42.266;24.944;2022-08-19T10:28:48;99055.03;;;37.76;29.40
7376;BME280;3728;42.266;24.944;2022-08-19T10:31:21;99054.03;;;37.73;28.10
7376;BME280;3728;42.266;24.944;2022-08-19T10:34:10;99052.56;;;37.89;27.86
7376;BME280;3728;42.266;24.944;2022-08-19T10:36:52;99052.56;;;37.83;28.72
7376;BME280;3728;42.266;24.944;2022-08-19T10:39:22;99054.31;;;37.86;29.17
7376;BME280;3728;42.266;24.944;2022-08-19T10:41:56;99050.78;;;37.58;29.61
7376;BME280;3728;42.266;24.944;2022-08-19T10:44:24;99043.09;;;37.67;29.24
7376;BME280;3728;42.266;24.944;2022-08-19T10:46:58;99047.09;;;37.83;29.82
7376;BME280;3728;42.266;24.944;2022-08-19T10:49:26;99043.88;;;37.96;28.88
7376;BME280;3728;42.266;24.944;2022-08-19T10:52:01;99045.38;;;38.13;29.46
7376;BME280;3728;42.266;24.944;2022-08-19T10:54:58;99043.88;;;38.07;31.64
7376;BME280;3728;42.266;24.944;2022-08-19T10:57:44;99044.84;;;38.26;30.91
7376;BME280;3728;42.266;24.944;2022-08-19T11:00:28;99040.38;;;38.17;30.44
7376;BME280;3728;42.266;24.944;2022-08-19T11:02:57;99042.75;;;38.82;27.78
7376;BME280;3728;42.266;24.944;2022-08-19T11:05:24;99024.19;;;38.53;28.96
7376;BME280;3728;42.266;24.944;2022-08-19T11:07:52;99036.09;;;38.72;29.04
7376;BME280;3728;42.266;24.944;2022-08-19T11:10:20;99031.59;;;38.74;28.45
7376;BME280;3728;42.266;24.944;2022-08-19T11:12:48;99025.66;;;38.54;29.67
7376;BME280;3728;42.266;24.944;2022-08-19T11:15:21;99026.84;;;38.75;28.14
7376;BME280;3728;42.266;24.944;2022-08-19T11:17:51;99019.19;;;39.20;26.71
7376;BME280;3728;42.266;24.944;2022-08-19T11:20:21;99022.19;;;39.22;27.57
7376;BME280;3728;42.266;24.944;2022-08-19T11:22:52;99022.28;;;38.99;27.30
7376;BME280;3728;42.266;24.944;2022-08-19T11:25:23;99018.63;;;39.32;26.59
7376;BME280;3728;42.266;24.944;2022-08-19T11:27:50;99018.94;;;39.23;28.26
7376;BME280;3728;42.266;24.944;2022-08-19T11:30:19;99009.88;;;39.39;27.52
7376;BME280;3728;42.266;24.944;2022-08-19T11:32:47;99013.19;;;39.68;26.18
7376;BME280;3728;42.266;24.944;2022-08-19T11:35:16;99015.28;;;39.50;26.78
7376;BME280;3728;42.266;24.944;2022-08-19T11:37:47;99002.03;;;39.19;26.95
7376;BME280;3728;42.266;24.944;2022-08-19T11:40:15;99005.41;;;38.84;28.19
7376;BME280;3728;42.266;24.944;2022-08-19T11:42:42;99006.91;;;38.91;28.23
7376;BME280;3728;42.266;24.944;2022-08-19T11:45:24;99002.59;;;39.47;25.62
7376;BME280;3728;42.266;24.944;2022-08-19T11:47:52;98992.97;;;39.35;25.88
7376;BME280;3728;42.266;24.944;2022-08-19T11:50:20;98992.56;;;39.61;25.96
7376;BME280;3728;42.266;24.944;2022-08-19T11:52:47;98991.16;;;39.79;25.71
7376;BME280;3728;42.266;24.944;2022-08-19T11:55:16;98986.22;;;39.72;25.90
7376;BME280;3728;42.266;24.944;2022-08-19T11:57:43;98989.00;;;39.96;26.77
7376;BME280;3728;42.266;24.944;2022-08-19T12:00:11;98985.72;;;39.97;25.61
7376;BME280;3728;42.266;24.944;2022-08-19T12:02:39;98982.84;;;39.90;25.06
7376;BME280;3728;42.266;24.944;2022-08-19T12:05:07;98987.16;;;40.09;25.94
7376;BME280;3728;42.266;24.944;2022-08-19T12:07:39;98985.50;;;40.25;25.02
7376;BME280;3728;42.266;24.944;2022-08-19T12:10:09;98973.72;;;40.06;26.51
7376;BME280;3728;42.266;24.944;2022-08-19T12:12:37;98987.09;;;40.15;25.58
7376;BME280;3728;42.266;24.944;2022-08-19T12:15:10;98977.22;;;40.06;25.27
7376;BME280;3728;42.266;24.944;2022-08-19T12:17:38;98974.63;;;40.14;24.50
7376;BME280;3728;42.266;24.944;2022-08-19T12:20:08;98966.16;;;40.12;25.34
7376;BME280;3728;42.266;24.944;2022-08-19T12:22:37;98963.09;;;40.45;24.87
7376;BME280;3728;42.266;24.944;2022-08-19T12:25:06;98964.09;;;40.42;25.28
7376;BME280;3728;42.266;24.944;2022-08-19T12:27:34;98963.69;;;40.75;24.42
7376;BME280;3728;42.266;24.944;2022-08-19T12:30:10;98962.16;;;40.80;24.43
7376;BME280;3728;42.266;24.944;2022-08-19T12:32:39;98955.84;;;40.66;24.26
7376;BME280;3728;42.266;24.944;2022-08-19T12:35:07;98950.44;;;40.37;25.45
7376;BME280;3728;42.266;24.944;2022-08-19T12:37:35;98956.16;;;40.63;25.43
7376;BME280;3728;42.266;24.944;2022-08-19T12:40:03;98941.28;;;41.09;23.89
7376;BME280;3728;42.266;24.944;2022-08-19T12:42:31;98945.34;;;40.89;24.64
7376;BME280;3728;42.266;24.944;2022-08-19T12:44:58;98951.13;;;40.18;24.33
7376;BME280;3728;42.266;24.944;2022-08-19T12:47:27;98945.81;;;40.26;25.20
7376;BME280;3728;42.266;24.944;2022-08-19T12:49:56;98949.03;;;40.91;23.40
7376;BME280;3728;42.266;24.944;2022-08-19T12:52:25;98944.41;;;40.81;24.15
7376;BME280;3728;42.266;24.944;2022-08-19T12:54:55;98945.38;;;40.83;24.02
7376;BME280;3728;42.266;24.944;2022-08-19T12:57:27;98945.31;;;41.08;23.68
7376;BME280;3728;42.266;24.944;2022-08-19T13:00:03;98936.41;;;41.02;24.07
7376;BME280;3728;42.266;24.944;2022-08-19T13:02:34;98931.94;;;40.80;24.35
7376;BME280;3728;42.266;24.944;2022-08-19T13:05:06;98928.91;;;40.65;24.24
7376;BME280;3728;42.266;24.944;2022-08-19T13:07:35;98929.72;;;40.60;25.16
7376;BME280;3728;42.266;24.944;2022-08-19T13:10:09;98923.41;;;40.83;24.64
7376;BME280;3728;42.266;24.944;2022-08-19T13:12:38;98925.63;;;41.04;25.15
7376;BME280;3728;42.266;24.944;2022-08-19T13:15:10;98917.66;;;41.19;23.59
7376;BME280;3728;42.266;24.944;2022-08-19T13:17:38;98920.19;;;41.17;24.89
7376;BME280;3728;42.266;24.944;2022-08-19T13:20:11;98919.97;;;41.46;24.49
7376;BME280;3728;42.266;24.944;2022-08-19T13:22:42;98917.47;;;41.62;23.55
7376;BME280;3728;42.266;24.944;2022-08-19T13:25:13;98922.16;;;41.35;24.53
7376;BME280;3728;42.266;24.944;2022-08-19T13:27:40;98913.94;;;41.35;23.98
7376;BME280;3728;42.266;24.944;2022-08-19T13:30:10;98921.75;;;41.76;22.45
7376;BME280;3728;42.266;24.944;2022-08-19T13:32:56;98917.28;;;41.59;23.36
7376;BME280;3728;42.266;24.944;2022-08-19T13:38:10;98908.16;;;41.65;23.33
7376;BME280;3728;42.266;24.944;2022-08-19T13:40:40;98907.69;;;41.79;23.24
7376;BME280;3728;42.266;24.944;2022-08-19T13:43:09;98904.19;;;41.92;22.95
7376;BME280;3728;42.266;24.944;2022-08-19T13:45:52;98901.72;;;41.62;23.67
7376;BME280;3728;42.266;24.944;2022-08-19T13:48:24;98905.75;;;41.74;23.33
7376;BME280;3728;42.266;24.944;2022-08-19T13:50:54;98906.09;;;41.71;23.22
7376;BME280;3728;42.266;24.944;2022-08-19T13:53:22;98899.63;;;41.81;22.44